Time;durP1;ratioP1;P1;durP2;ratioP2;P2;SDS_P1;SDS_P2;PMS_P1;PMS_P2;Temp;Humidity;BMP_temperature;BMP_pressure;BME280_temperature;BME280_humidity;BME280_pressure;Samples;Min_cycle;Max_cycle;Signal;HPM_P1;HPM_P2
2022/11/30 00:01:29;;;;;;;24.73;14.10;;;9.40;97.30;;;9.82;66.21;98972.84;4946198;28;114314;-79
2022/11/30 00:04:00;;;;;;;28.40;16.37;;;9.30;97.20;;;9.81;66.08;98974.00;4943158;28;113158;-78
2022/11/30 00:06:29;;;;;;;29.60;14.87;;;10.40;97.40;;;9.77;65.96;98961.91;4921256;28;124110;-80
2022/11/30 00:09:15;;;;;;;27.60;15.87;;;9.20;97.20;;;9.77;65.77;98967.41;4936229;28;122025;-80
2022/11/30 00:11:41;;;;;;;27.03;15.33;;;9.30;97.10;;;9.73;65.87;98961.69;4935566;28;113709;-80
2022/11/30 00:14:08;;;;;;;28.87;15.60;;;8.00;96.80;;;9.74;66.55;98961.38;4921690;28;113896;-81
2022/11/30 00:16:34;;;;;;;23.53;14.57;;;9.20;97.20;;;9.75;65.95;98967.72;4927624;28;123577;-80
2022/11/30 00:19:01;;;;;;;23.13;13.60;;;9.20;97.30;;;9.76;66.07;98965.78;4951409;28;123817;-80
2022/11/30 00:21:28;;;;;;;31.00;16.73;;;9.20;97.30;;;9.76;66.43;98972.13;4952757;28;113883;-80
2022/11/30 00:23:55;;;;;;;22.83;15.07;;;9.20;97.30;;;9.76;66.64;98960.28;4942719;28;113608;-80
2022/11/30 00:26:22;;;;;;;33.43;17.23;;;10.90;97.40;;;9.78;65.97;98964.38;4940772;28;122280;-80
2022/11/30 00:28:50;;;;;;;32.57;17.00;;;9.20;97.40;;;9.76;66.45;98966.63;4951280;28;124778;-80
2022/11/30 00:31:18;;;;;;;27.57;15.50;;;9.30;97.30;;;9.72;66.57;98960.03;4942889;28;112786;-80
2022/11/30 00:33:45;;;;;;;27.63;16.20;;;9.20;97.30;;;9.73;66.19;98957.00;4956817;28;113370;-80
2022/11/30 00:36:20;;;;;;;23.90;13.90;;;9.20;97.10;;;9.75;66.32;98956.69;4926026;28;122249;-80
2022/11/30 00:38:50;;;;;;;25.47;15.30;;;10.70;97.40;;;9.74;66.28;98964.13;4942444;28;124051;-80
2022/11/30 00:41:19;;;;;;;34.47;18.63;;;9.30;97.20;;;9.75;66.34;98956.69;4956222;28;113835;-81
2022/11/30 00:43:46;;;;;;;22.30;13.87;;;9.30;97.20;;;9.72;66.19;98958.13;4939627;28;113330;-80
2022/11/30 00:46:15;;;;;;;26.90;15.70;;;9.20;97.20;;;9.71;66.22;98962.00;4957105;28;123194;-80
2022/11/30 00:48:42;;;;;;;23.00;13.37;;;11.40;97.80;;;9.71;66.31;98959.22;4941066;28;122876;-81
2022/11/30 00:51:11;;;;;;;25.40;16.00;;;9.20;97.40;;;9.74;66.56;98963.31;4959189;28;115277;-80
2022/11/30 00:53:40;;;;;;;29.70;17.20;;;9.30;97.40;;;9.74;65.90;98969.66;4941933;28;115174;-80
2022/11/30 00:56:09;;;;;;;22.60;14.57;;;9.30;97.30;;;9.74;66.21;98968.84;4973760;28;123574;-80
2022/11/30 00:58:37;;;;;;;29.57;16.53;;;9.20;97.20;;;9.72;66.49;98960.03;4942841;28;123176;-80
2022/11/30 01:01:07;;;;;;;23.40;13.40;;;9.30;97.60;;;9.72;66.62;98958.13;4962167;28;113964;-80
2022/11/30 01:03:35;;;;;;;24.33;13.70;;;9.20;97.30;;;9.73;66.29;98965.28;4960512;28;114161;-80
2022/11/30 01:06:08;;;;;;;27.10;14.97;;;9.20;97.40;;;9.73;66.57;98968.03;4946353;28;123202;-80
2022/11/30 01:08:35;;;;;;;25.50;15.50;;;9.30;97.30;;;9.73;66.56;98961.69;4972079;28;123445;-80
2022/11/30 01:11:11;;;;;;;26.17;14.53;;;9.30;97.50;;;9.77;66.84;98967.41;4946326;28;114750;-80
2022/11/30 01:13:38;;;;;;;21.03;13.10;;;9.20;97.20;;;9.72;66.11;98969.16;4935099;28;114411;-80
2022/11/30 01:16:10;;;;;;;25.67;15.40;;;9.30;97.50;;;9.73;66.54;98959.75;4941578;28;123993;-82
2022/11/30 01:18:38;;;;;;;24.40;14.13;;;9.30;97.20;;;9.73;66.45;98969.97;4945531;28;124571;-81
2022/11/30 01:21:07;;;;;;;25.50;12.90;;;9.30;97.40;;;9.72;66.32;98969.16;4959455;28;114142;-80
2022/11/30 01:23:39;;;;;;;21.30;14.37;;;9.30;97.30;;;9.76;66.44;98976.84;4959696;28;113674;-80
2022/11/30 01:26:09;;;;;;;25.13;14.10;;;9.30;97.30;;;9.73;66.73;98979.06;4946864;28;122816;-83
2022/11/30 01:28:39;;;;;;;24.40;14.93;;;9.30;97.30;;;9.72;66.33;98982.97;4963083;28;122319;-80
2022/11/30 01:31:11;;;;;;;27.33;15.63;;;9.20;97.20;;;9.72;66.39;98976.59;4965494;28;112387;-79
2022/11/30 01:34:00;;;;;;;26.47;14.20;;;9.30;97.30;;;9.70;66.38;98974.16;4961844;28;114630;-81
2022/11/30 01:36:49;;;;;;;28.60;16.40;;;7.60;96.60;;;9.68;66.27;98990.19;4961479;28;123435;-80
2022/11/30 01:39:17;;;;;;;22.90;13.70;;;9.20;97.30;;;9.63;66.32;98983.94;4953729;28;124537;-78
2022/11/30 01:41:45;;;;;;;31.73;16.93;;;9.20;97.30;;;9.62;66.54;98988.66;4943613;28;114642;-78
2022/11/30 01:44:16;;;;;;;24.07;15.90;;;9.20;97.50;;;9.64;66.95;98989.13;4919560;28;114876;-78
2022/11/30 01:46:55;;;;;;;26.17;14.13;;;9.20;97.30;;;9.61;66.74;98995.25;4948919;28;124514;-79
2022/11/30 01:49:45;;;;;;;25.67;14.17;;;9.10;97.30;;;9.61;66.89;98989.75;4935288;28;122782;-79
2022/11/30 01:52:36;;;;;;;23.47;13.60;;;9.20;97.40;;;9.60;66.87;98979.84;4947558;28;115100;-79
2022/11/30 01:55:35;;;;;;;28.83;15.70;;;9.10;97.40;;;9.61;66.65;98981.47;4939806;28;113908;-79
2022/11/30 01:58:26;;;;;;;26.77;15.60;;;9.10;97.30;;;9.58;66.47;98982.09;4938112;28;123966;-80
2022/11/30 02:00:53;;;;;;;20.23;11.77;;;9.10;97.30;;;9.55;66.85;98982.69;4907458;28;123851;-79
2022/11/30 02:03:58;;;;;;;25.33;14.10;;;9.10;97.30;;;9.56;66.59;98989.00;4917886;28;114094;-79
2022/11/30 02:06:28;;;;;;;25.13;14.33;;;9.10;97.30;;;9.57;66.81;98996.19;4926546;28;114349;-79
2022/11/30 02:08:56;;;;;;;22.93;13.30;;;9.10;97.40;;;9.58;67.05;98995.88;4934986;28;125113;-79
2022/11/30 02:11:25;;;;;;;22.43;12.90;;;9.40;97.50;;;9.59;66.64;98989.25;4919625;28;122637;-78
2022/11/30 02:14:46;;;;;;;26.00;14.37;;;9.10;97.30;;;9.60;66.44;98985.38;4935516;28;113601;-79
2022/11/30 02:18:12;;;;;;;23.40;12.90;;;9.10;97.30;;;9.52;66.74;99000.66;4856580;29;114307;-79
2022/11/30 02:21:03;;;;;;;26.50;15.20;;;9.10;97.30;;;9.51;66.67;99000.97;4806299;29;123154;-79
2022/11/30 02:24:08;;;;;;;21.93;13.17;;;9.00;97.30;;;9.52;67.03;99002.59;4855372;29;123919;-79
2022/11/30 02:27:14;;;;;;;20.93;12.60;;;9.10;97.40;;;9.51;66.93;98999.03;4847476;29;114122;-79
2022/11/30 02:29:48;;;;;;;20.87;12.07;;;9.10;97.40;;;9.53;66.97;98995.94;4845745;29;114201;-79
2022/11/30 02:32:24;;;;;;;19.97;12.80;;;9.20;97.40;;;9.54;67.11;98996.75;4841754;29;124493;-79
2022/11/30 02:34:52;;;;;;;23.90;12.97;;;9.10;97.40;;;9.54;66.45;98996.75;4822037;29;122218;-79
2022/11/30 02:37:19;;;;;;;21.73;12.53;;;9.10;97.40;;;9.54;67.20;98986.56;4846251;29;115243;-78
2022/11/30 02:39:46;;;;;;;20.13;12.33;;;9.10;97.40;;;9.57;66.73;98997.00;4812143;29;114568;-79
2022/11/30 02:42:14;;;;;;;25.33;13.83;;;9.10;97.40;;;9.57;66.69;98988.72;4845592;29;123784;-79
2022/11/30 02:44:46;;;;;;;20.30;13.40;;;9.10;97.40;;;9.60;66.63;98987.31;4846301;28;123568;-78
2022/11/30 02:47:44;;;;;;;21.80;13.70;;;9.10;97.40;;;9.59;66.77;98989.25;4858793;28;114416;-78
2022/11/30 02:50:21;;;;;;;20.70;12.63;;;9.10;97.30;;;9.57;67.08;98991.50;4928512;28;113244;-78
2022/11/30 02:52:49;;;;;;;21.27;13.47;;;9.10;97.30;;;9.56;66.32;99000.06;4933506;28;124237;-79
2022/11/30 02:55:18;;;;;;;21.70;13.13;;;9.60;97.50;;;9.55;66.38;98992.91;4933747;28;123963;-78
2022/11/30 02:57:46;;;;;;;22.77;13.00;;;9.10;97.30;;;9.55;66.62;99002.00;4937646;28;114113;-79
2022/11/30 03:00:14;;;;;;;20.27;13.37;;;9.10;97.30;;;9.55;66.63;98995.66;4937704;28;113871;-79
2022/11/30 03:02:41;;;;;;;22.70;12.40;;;9.10;97.40;;;9.52;66.86;98999.84;4934458;28;123963;-79
2022/11/30 03:05:08;;;;;;;19.23;12.47;;;9.80;97.70;;;9.54;66.73;98996.75;4931785;28;124284;-80
2022/11/30 03:07:35;;;;;;;19.13;11.43;;;9.00;97.40;;;9.54;66.48;98986.56;4938692;28;114099;-79
2022/11/30 03:10:02;;;;;;;18.97;11.97;;;10.30;97.40;;;9.56;66.61;98991.78;4935688;28;113856;-79
2022/11/30 03:12:28;;;;;;;21.23;12.03;;;9.10;97.40;;;9.55;66.84;98993.72;4936522;28;124178;-79
2022/11/30 03:14:55;;;;;;;18.57;11.70;;;9.30;97.50;;;9.55;66.84;98999.22;4937377;28;123671;-79
2022/11/30 03:17:22;;;;;;;18.40;10.50;;;9.10;97.40;;;9.57;66.75;98996.19;4938547;28;113941;-79
2022/11/30 03:19:51;;;;;;;21.40;12.90;;;9.10;97.40;;;9.56;66.80;99006.38;4932238;28;114094;-79
2022/11/30 03:22:17;;;;;;;18.73;10.70;;;9.10;97.40;;;9.55;66.97;99010.28;4932897;28;123804;-78
2022/11/30 03:24:44;;;;;;;16.57;10.90;;;9.10;97.40;;;9.56;66.86;99006.38;4931477;28;123218;-78
2022/11/30 03:27:11;;;;;;;18.50;11.47;;;9.10;97.40;;;9.58;66.71;99011.59;4932021;28;114428;-78
2022/11/30 03:29:38;;;;;;;17.13;9.83;;;9.10;97.40;;;9.55;66.70;99006.69;4932447;28;115375;-79
2022/11/30 03:32:07;;;;;;;20.90;12.73;;;9.30;97.50;;;9.52;66.69;99013.63;4935732;28;124416;-79
2022/11/30 03:34:35;;;;;;;17.20;10.70;;;9.00;97.40;;;9.50;67.17;99013.09;4941032;28;123625;-79
2022/11/30 03:37:01;;;;;;;17.53;10.60;;;9.00;97.40;;;9.47;66.88;99013.72;4937930;28;114167;-79
2022/11/30 03:39:28;;;;;;;16.77;11.60;;;9.00;97.50;;;9.45;67.07;99011.25;4930624;28;114378;-79
2022/11/30 03:41:54;;;;;;;19.57;10.70;;;9.00;97.50;;;9.43;66.89;99010.75;4931268;28;124046;-79
2022/11/30 03:44:21;;;;;;;17.70;11.43;;;9.00;97.50;;;9.47;66.95;99010.94;4949809;28;123604;-79
2022/11/30 03:46:47;;;;;;;19.10;10.10;;;9.00;97.50;;;9.49;66.98;99009.53;4936772;28;114517;-79
2022/11/30 03:49:14;;;;;;;17.67;10.50;;;9.10;97.60;;;9.52;66.89;99013.63;4935448;28;113583;-79
2022/11/30 03:51:40;;;;;;;18.90;11.40;;;9.00;97.60;;;9.53;66.91;99012.50;4937387;28;124108;-79
2022/11/30 03:54:08;;;;;;;17.97;10.60;;;9.10;97.50;;;9.51;66.88;99012.81;4946385;28;123520;-79
2022/11/30 03:56:34;;;;;;;19.03;11.93;;;9.10;97.50;;;9.53;66.66;99006.97;4937722;28;113116;-78
2022/11/30 03:59:01;;;;;;;16.80;10.17;;;9.00;97.50;;;9.54;67.07;99008.66;4944016;28;114121;-79
2022/11/30 04:01:27;;;;;;;17.27;10.93;;;9.20;97.60;;;9.56;66.83;99017.41;4934743;28;124012;-79
2022/11/30 04:03:55;;;;;;;13.23;8.90;;;9.10;97.50;;;9.57;66.61;99019.06;4934826;28;122991;-80
2022/11/30 04:06:22;;;;;;;19.60;12.40;;;9.10;97.50;;;9.58;67.11;99012.41;4952250;28;112224;-79
2022/11/30 04:08:49;;;;;;;19.90;11.10;;;9.10;97.50;;;9.60;66.87;99015.72;4947681;28;114119;-79
2022/11/30 04:11:16;;;;;;;14.70;9.30;;;9.10;97.50;;;9.60;66.87;99014.91;4937241;28;122022;-79
2022/11/30 04:13:43;;;;;;;15.90;9.40;;;10.10;97.50;;;9.61;66.66;99019.28;4938893;28;122911;-79
2022/11/30 04:16:10;;;;;;;13.77;9.57;;;9.70;97.70;;;9.60;66.69;99012.13;4936281;28;117291;-79
2022/11/30 04:18:38;;;;;;;15.47;10.37;;;9.10;97.40;;;9.58;66.96;99014.38;4937157;28;113556;-79
2022/11/30 04:21:06;;;;;;;18.00;11.23;;;10.30;97.50;;;9.58;67.13;99017.94;4944273;28;124224;-79
2022/11/30 04:23:37;;;;;;;16.60;9.77;;;9.10;97.50;;;9.59;66.82;99016.84;4945826;28;123778;-79
2022/11/30 04:26:07;;;;;;;13.70;9.20;;;10.20;97.50;;;9.57;67.10;99016.31;4941678;28;114183;-80
2022/11/30 04:28:34;;;;;;;15.60;9.93;;;9.10;97.50;;;9.56;66.96;99013.84;4943219;28;114022;-78
2022/11/30 04:31:01;;;;;;;16.33;10.43;;;9.10;97.50;;;9.54;67.11;99008.66;4938426;28;124023;-79
2022/11/30 04:33:28;;;;;;;13.43;9.13;;;9.20;97.60;;;9.55;66.83;99018.53;4940543;28;124478;-78
2022/11/30 04:35:58;;;;;;;11.80;8.00;;;9.20;97.60;;;9.56;66.79;99017.41;4951428;28;114272;-78
2022/11/30 04:38:45;;;;;;;16.40;8.93;;;9.10;97.80;;;9.57;67.15;99018.25;4922356;28;111946;-79
2022/11/30 04:41:13;;;;;;;19.63;10.83;;;9.10;97.50;;;9.57;67.17;99024.59;4875675;28;123740;-79
2022/11/30 04:43:40;;;;;;;17.77;10.40;;;9.10;97.50;;;9.55;66.90;99014.97;4877271;28;122347;-79
2022/11/30 04:46:06;;;;;;;27.10;12.03;;;9.10;97.50;;;9.53;67.06;99023.53;4860703;28;113482;-78
2022/11/30 04:48:33;;;;;;;16.37;11.13;;;9.10;97.40;;;9.53;66.91;99012.50;4874602;28;114303;-79
2022/11/30 04:51:06;;;;;;;15.00;9.60;;;9.00;97.50;;;9.54;67.14;99016.91;4873759;28;123920;-79
2022/11/30 04:53:36;;;;;;;16.20;9.87;;;9.00;97.50;;;9.52;66.97;99016.38;4876124;28;122840;-78
2022/11/30 04:56:10;;;;;;;12.80;8.47;;;9.20;97.60;;;9.51;67.24;99014.75;4874024;28;114313;-79
2022/11/30 04:58:38;;;;;;;15.03;9.33;;;9.00;97.50;;;9.47;67.29;99013.72;4861134;28;113728;-78
2022/11/30 05:01:05;;;;;;;13.83;9.00;;;9.00;97.60;;;9.49;67.18;99008.72;4860213;28;123131;-79
2022/11/30 05:03:33;;;;;;;12.13;8.37;;;9.00;97.60;;;9.50;66.92;99016.69;4846724;29;124656;-78
2022/11/30 05:06:00;;;;;;;13.47;9.20;;;9.00;97.60;;;9.50;67.18;99016.69;4841354;29;114817;-78
2022/11/30 05:08:28;;;;;;;17.10;10.57;;;10.40;97.80;;;9.49;67.01;99022.50;4853925;29;115139;-79
2022/11/30 05:10:55;;;;;;;12.90;8.23;;;9.10;97.60;;;9.49;67.09;99019.75;4853500;29;124033;-79
2022/11/30 05:13:40;;;;;;;16.27;9.43;;;9.00;97.60;;;9.51;67.25;99020.28;4854048;29;123578;-79
2022/11/30 05:16:09;;;;;;;15.37;10.00;;;9.00;97.60;;;9.50;67.52;99015.88;4858242;28;113417;-80
2022/11/30 05:18:37;;;;;;;13.40;8.00;;;9.10;97.60;;;9.52;67.02;99019.16;4891913;28;114121;-79
2022/11/30 05:21:22;;;;;;;15.53;8.90;;;9.10;97.70;;;9.57;67.04;99021.81;4912929;28;123965;-79
2022/11/30 05:23:51;;;;;;;15.10;9.10;;;9.10;97.60;;;9.57;67.01;99023.78;4930939;28;123650;-81
2022/11/30 05:26:17;;;;;;;19.33;8.90;;;9.10;97.60;;;9.55;67.33;99029.56;4915508;28;113704;-81
2022/11/30 05:28:44;;;;;;;14.07;8.27;;;9.10;97.60;;;9.54;67.22;99025.19;4925144;28;112882;-79
2022/11/30 05:31:11;;;;;;;12.83;8.13;;;9.00;97.60;;;9.51;67.33;99032.13;4912647;28;124095;-79
2022/11/30 05:33:38;;;;;;;13.67;8.63;;;9.00;97.60;;;9.52;67.45;99031.00;4922214;28;123578;-81
2022/11/30 05:36:05;;;;;;;15.63;8.73;;;9.00;97.60;;;9.52;67.38;99033.75;4912694;28;114173;-79
2022/11/30 05:38:32;;;;;;;13.57;8.97;;;9.00;97.60;;;9.54;67.02;99041.75;4924855;28;112708;-80
2022/11/30 05:41:00;;;;;;;15.97;9.47;;;9.10;97.70;;;9.55;67.44;99037.84;4917329;28;123287;-79
2022/11/30 05:43:27;;;;;;;13.23;8.60;;;9.10;97.70;;;9.57;67.28;99029.28;4912857;28;124045;-80
2022/11/30 05:46:02;;;;;;;13.57;9.13;;;9.10;97.70;;;9.59;67.34;99032.53;4914394;28;113346;-79
2022/11/30 05:48:29;;;;;;;16.50;10.77;;;9.10;97.70;;;9.57;67.04;99043.09;4916680;28;114421;-80
2022/11/30 05:51:14;;;;;;;21.10;13.00;;;10.00;97.60;;;9.58;67.09;99042.75;4912227;28;124555;-79
2022/11/30 05:53:42;;;;;;;18.23;10.63;;;9.10;97.70;;;9.55;67.08;99037.03;4916254;28;123789;-79
2022/11/30 05:56:18;;;;;;;13.70;9.40;;;9.10;97.70;;;9.55;67.49;99040.59;4913258;28;116003;-79
2022/11/30 05:58:46;;;;;;;13.80;9.00;;;9.20;98.10;;;9.55;67.22;99039.78;4916833;28;115545;-79
2022/11/30 06:01:27;;;;;;;11.90;9.10;;;10.10;97.70;;;9.57;67.39;99035.63;4912522;28;123787;-79
2022/11/30 06:03:54;;;;;;;12.83;7.87;;;9.10;97.70;;;9.55;67.39;99037.03;4927279;28;123459;-79
2022/11/30 06:06:21;;;;;;;13.27;8.73;;;9.10;97.70;;;9.54;67.28;99032.63;4912352;28;114410;-79
2022/11/30 06:08:49;;;;;;;13.53;8.20;;;9.20;97.70;;;9.53;67.58;99040.09;4927064;28;113112;-80
2022/11/30 06:11:16;;;;;;;15.23;9.53;;;9.70;97.90;;;9.55;67.25;99031.53;4911152;28;123112;-79
2022/11/30 06:13:42;;;;;;;13.43;8.47;;;9.10;97.70;;;9.52;67.43;99042.03;4911168;28;123749;-80
2022/11/30 06:16:09;;;;;;;11.73;7.60;;;9.00;97.60;;;9.49;67.18;99036.31;4911837;28;114207;-79
2022/11/30 06:18:37;;;;;;;10.80;7.97;;;9.50;97.90;;;9.51;67.07;99036.81;4911476;28;113280;-80
2022/11/30 06:21:07;;;;;;;13.50;9.40;;;9.00;97.70;;;9.51;67.08;99032.13;4897240;28;123297;-80
2022/11/30 06:23:34;;;;;;;11.37;7.33;;;10.10;97.70;;;9.53;67.38;99040.09;4910166;28;123951;-80
2022/11/30 06:26:06;;;;;;;11.23;7.27;;;9.90;98.10;;;9.55;67.39;99035.09;4910911;28;114090;-79
2022/11/30 06:28:34;;;;;;;12.43;8.03;;;9.10;97.70;;;9.56;67.11;99033.97;4913435;28;113500;-81
2022/11/30 06:31:03;;;;;;;14.70;8.60;;;9.10;97.70;;;9.57;67.84;99034.81;4925772;28;124014;-79
2022/11/30 06:33:30;;;;;;;14.20;9.20;;;10.20;97.80;;;9.61;67.89;99028.38;4915437;28;122961;-80
2022/11/30 06:36:22;;;;;;;12.67;6.50;;;9.80;98.20;;;9.72;68.04;99021.59;4902352;28;114303;-82
2022/11/30 06:38:49;;;;;;;12.57;8.50;;;9.20;98.30;;;9.75;68.34;99025.66;4919292;28;113297;-80
2022/11/30 06:41:16;;;;;;;12.13;8.17;;;10.20;98.30;;;9.81;68.28;99040.22;4907044;28;123836;-80
2022/11/30 06:43:43;;;;;;;13.70;8.60;;;10.20;98.30;;;9.82;67.80;99028.03;4907218;28;123148;-80
2022/11/30 06:46:10;;;;;;;11.27;7.37;;;9.30;98.30;;;9.83;67.66;99032.44;5048784;23;114541;-81
2022/11/30 06:48:36;;;;;;;11.87;8.00;;;9.30;98.10;;;9.81;67.46;99045.72;4949722;28;114972;-81
2022/11/30 06:51:08;;;;;;;14.73;7.83;;;9.30;98.00;;;9.80;67.92;99033.03;4951423;28;124185;-82
2022/11/30 06:53:37;;;;;;;12.70;8.80;;;9.80;98.20;;;9.79;67.38;99045.22;4949081;28;122941;-82
2022/11/30 06:56:06;;;;;;;11.70;6.90;;;9.30;97.90;;;9.78;67.44;99043.56;4941509;28;114196;-79
2022/11/30 06:58:32;;;;;;;13.63;7.70;;;9.20;97.90;;;9.77;67.21;99048.25;4936887;28;113084;-79
2022/11/30 07:00:59;;;;;;;14.13;9.20;;;9.30;97.90;;;9.78;67.20;99038.88;4939782;28;123274;-82
2022/11/30 07:03:26;;;;;;;10.83;7.40;;;9.30;97.90;;;9.80;66.99;99052.34;4938155;28;124000;-81
2022/11/30 07:05:53;;;;;;;16.23;8.70;;;9.30;97.80;;;9.77;66.90;99050.19;4957892;28;112709;-80
2022/11/30 07:08:21;;;;;;;12.40;7.93;;;9.30;97.80;;;9.79;66.88;99051.53;4947431;28;113170;-81
2022/11/30 07:10:47;;;;;;;11.70;7.50;;;10.40;97.90;;;9.74;66.72;99049.69;4936577;28;124179;-81
2022/11/30 07:13:17;;;;;;;13.37;8.37;;;9.40;97.80;;;9.77;67.16;99050.19;4943176;28;123340;-80
2022/11/30 07:15:44;;;;;;;13.03;8.80;;;11.00;97.90;;;9.76;66.73;99054.91;4947794;28;112677;-81
2022/11/30 07:18:13;;;;;;;12.87;7.70;;;9.30;97.70;;;9.76;66.89;99059.63;4952085;28;113245;-81
2022/11/30 07:21:02;;;;;;;10.40;7.10;;;9.30;97.70;;;9.77;66.85;99050.19;4942406;28;124026;-82
2022/11/30 07:26:16;;;;;;;14.17;8.10;;;9.30;98.00;;;9.77;67.19;99050.19;4950564;28;114876;-81
2022/11/30 07:28:50;;;;;;;10.87;7.37;;;9.30;97.70;;;9.76;66.80;99056.84;4933837;28;112624;-82
2022/11/30 07:31:33;;;;;;;12.87;7.90;;;9.30;97.60;;;9.77;66.80;99061.25;4947089;28;124467;-80
2022/11/30 07:34:07;;;;;;;11.53;7.33;;;9.30;97.70;;;9.77;66.90;99061.25;4945084;28;123103;-82
2022/11/30 07:36:53;;;;;;;14.73;7.07;;;9.30;97.60;;;9.77;66.81;99061.25;4938013;28;114656;-83
2022/11/30 07:39:20;;;;;;;20.73;9.93;;;9.20;97.60;;;9.76;66.83;99060.41;4940214;28;114978;-82
2022/11/30 07:41:48;;;;;;;15.60;8.97;;;9.30;97.70;;;9.78;66.48;99062.88;4956113;28;123132;-82
2022/11/30 07:44:15;;;;;;;14.43;8.73;;;10.90;97.80;;;9.78;67.02;99055.44;4919583;28;122323;-84
2022/11/30 07:46:41;;;;;;;11.20;7.90;;;10.00;97.40;;;9.81;66.94;99059.53;4950065;28;113538;-80
2022/11/30 07:49:09;;;;;;;17.53;8.97;;;9.30;97.70;;;9.82;66.95;99064.72;4955535;28;113725;-82
2022/11/30 07:51:37;;;;;;;11.17;7.23;;;11.20;97.90;;;9.84;67.18;99056.16;4959549;28;124227;-86
2022/11/30 07:54:05;;;;;;;17.50;8.57;;;9.40;97.60;;;9.86;66.78;99064.94;4982552;28;122943;-84
2022/11/30 07:56:32;;;;;;;13.60;8.23;;;11.30;98.00;;;9.87;67.31;99067.41;4953904;28;114369;-84
2022/11/30 07:59:01;;;;;;;18.20;11.00;;;9.30;97.90;;;9.87;66.99;99066.59;4949035;28;113125;-80
2022/11/30 08:01:31;;;;;;;13.30;8.87;;;9.70;97.80;;;9.88;66.97;99073.75;4949611;28;124572;-84
2022/11/30 08:03:59;;;;;;;17.13;9.20;;;9.40;97.70;;;9.89;66.79;99075.41;4957648;28;124453;-79
2022/11/30 08:06:29;;;;;;;11.17;7.50;;;9.40;97.70;;;9.90;66.94;99077.84;4938761;28;112217;-83
2022/11/30 08:09:00;;;;;;;17.90;7.50;;;10.20;97.60;;;9.92;66.79;99080.31;4911809;28;113404;-84
2022/11/30 08:11:29;;;;;;;16.70;11.17;;;9.40;97.70;;;9.92;66.90;99080.31;4905921;28;124199;-82
2022/11/30 08:13:56;;;;;;;13.07;8.57;;;9.40;97.70;;;9.91;67.18;99079.50;4925860;28;123742;-83
2022/11/30 08:16:27;;;;;;;16.80;10.07;;;11.30;98.00;;;9.93;66.70;99084.69;4900625;28;113473;-80
2022/11/30 08:18:57;;;;;;;18.07;11.90;;;9.40;97.60;;;9.90;66.54;99088.06;4924967;28;114026;-81
2022/11/30 08:21:24;;;;;;;17.57;10.03;;;8.60;97.30;;;9.88;66.83;99084.78;4932039;28;123430;-85
2022/11/30 08:23:57;;;;;;;14.43;8.63;;;9.40;97.60;;;9.90;66.94;99093.59;4929248;28;122728;-82
2022/11/30 08:26:29;;;;;;;15.80;9.23;;;9.40;97.70;;;9.93;66.85;99096.56;4929357;28;114662;-85
2022/11/30 08:28:58;;;;;;;17.00;9.77;;;9.40;97.70;;;9.95;66.87;99086.03;4928862;28;115196;-80
2022/11/30 08:31:35;;;;;;;14.77;9.47;;;11.30;98.00;;;10.01;66.71;99084.00;4917012;28;123310;-86
2022/11/30 08:34:07;;;;;;;17.87;9.53;;;11.10;97.90;;;10.01;66.98;99095.06;4936036;28;122633;-83
2022/11/30 08:36:34;;;;;;;13.53;9.07;;;9.50;97.70;;;10.03;66.64;99095.59;4931961;28;113729;-79
2022/11/30 08:39:04;;;;;;;18.57;12.00;;;9.50;97.60;;;10.04;66.44;99094.44;4955923;28;114487;-84
2022/11/30 08:41:33;;;;;;;16.07;10.70;;;9.50;97.60;;;10.06;66.80;99092.22;4971541;28;123266;-79
2022/11/30 08:44:18;;;;;;;16.40;9.77;;;11.30;97.90;;;10.09;66.27;99088.84;4969374;28;122932;-83
2022/11/30 08:46:45;;;;;;;13.97;9.20;;;9.50;97.60;;;10.09;66.40;99086.09;4968108;28;114264;-82
2022/11/30 08:49:11;;;;;;;19.33;10.43;;;9.50;97.50;;;10.09;66.24;99088.03;4945407;28;112932;-83
2022/11/30 08:51:38;;;;;;;18.40;10.30;;;9.50;97.40;;;10.11;66.02;99094.88;4945391;28;124208;-80
2022/11/30 08:54:26;;;;;;;15.90;10.50;;;9.60;97.40;;;10.11;65.69;99094.88;4960050;28;123047;-83
2022/11/30 08:56:52;;;;;;;17.63;10.00;;;9.60;97.30;;;10.08;65.46;99095.50;4970232;28;113346;-84
2022/11/30 08:59:37;;;;;;;20.00;11.00;;;10.10;96.80;;;10.05;65.11;99101.63;4967531;28;113807;-85
2022/11/30 09:02:04;;;;;;;20.07;10.57;;;9.60;96.90;;;10.03;65.18;99098.34;4970577;28;123519;-81
2022/11/30 09:04:32;;;;;;;19.40;11.10;;;9.50;96.80;;;10.04;64.89;99105.50;4966944;28;122851;-84
2022/11/30 09:06:59;;;;;;;17.40;9.73;;;11.00;96.90;;;10.05;64.57;99104.38;4966144;28;113741;-82
2022/11/30 09:09:32;;;;;;;16.80;10.63;;;10.60;96.70;;;10.09;64.38;99105.41;4967720;28;113886;-84
2022/11/30 09:11:59;;;;;;;20.60;10.80;;;9.50;96.50;;;10.10;64.43;99098.78;4963679;28;123443;-80
2022/11/30 09:14:25;;;;;;;17.70;10.30;;;9.60;96.40;;;10.13;63.88;99103.69;4949859;28;123571;-83
2022/11/30 09:16:56;;;;;;;18.63;12.20;;;9.60;96.20;;;10.18;63.92;99106.38;4946437;28;115250;-85
2022/11/30 09:19:41;;;;;;;18.50;11.10;;;9.70;96.30;;;10.21;63.97;99110.47;4949872;28;113412;-83
2022/11/30 09:22:08;;;;;;;21.27;12.37;;;9.70;96.40;;;10.21;64.10;99112.38;4939441;28;124029;-83
2022/11/30 09:24:38;;;;;;;16.57;10.03;;;11.70;96.80;;;10.25;63.65;99118.97;4946256;28;123024;-85
2022/11/30 09:27:04;;;;;;;21.93;12.47;;;10.40;96.20;;;10.28;63.17;99110.09;4936595;28;113251;-84
2022/11/30 09:29:30;;;;;;;17.13;11.07;;;11.80;96.60;;;10.28;63.28;99115.63;4945018;28;113704;-86
2022/11/30 09:32:35;;;;;;;18.67;11.10;;;9.80;96.00;;;10.29;63.18;99122.78;4937721;28;123432;-88
2022/11/30 09:35:01;;;;;;;18.20;10.77;;;9.60;95.80;;;10.31;63.07;99115.00;4965547;28;123771;-85
2022/11/30 09:37:29;;;;;;;23.33;12.40;;;11.50;96.10;;;10.33;63.11;99116.34;4948791;28;114365;-84
2022/11/30 09:39:56;;;;;;;18.43;11.60;;;10.00;95.30;;;10.33;62.66;99121.06;4947852;28;114048;-84
2022/11/30 09:42:42;;;;;;;22.60;12.27;;;11.50;95.80;;;10.32;62.26;99111.97;4942746;28;123381;-82
2022/11/30 09:45:41;;;;;;;18.10;10.60;;;9.80;95.50;;;10.32;62.63;99113.91;4917102;28;1196002;-82
2022/11/30 09:48:39;;;;;;;20.60;12.00;;;8.70;95.00;;;10.33;62.45;99121.06;4933834;28;113662;-85
2022/11/30 09:51:15;;;;;;;17.77;10.40;;;9.80;95.40;;;10.34;62.19;99119.94;4951105;28;113851;-85
2022/11/30 09:53:50;;;;;;;25.90;15.10;;;9.80;95.30;;;10.32;62.02;99117.47;4935964;28;123208;-85
2022/11/30 09:56:38;;;;;;;22.87;13.20;;;9.80;95.10;;;10.31;62.08;99109.50;4951746;28;124051;-84
2022/11/30 09:59:34;;;;;;;21.13;12.43;;;9.80;95.20;;;10.31;62.09;99112.25;4936792;28;112316;-83
2022/11/30 10:02:15;;;;;;;22.27;12.77;;;11.30;95.20;;;10.31;61.90;99103.97;4975729;28;112621;-86
2022/11/30 10:04:47;;;;;;;25.67;14.40;;;9.40;94.90;;;10.33;62.09;99107.25;4959245;28;123537;-86
2022/11/30 10:08:08;;;;;;;23.63;12.70;;;9.80;95.00;;;10.35;61.74;99111.34;4956442;28;122284;-84
2022/11/30 10:11:14;;;;;;;23.43;11.70;;;9.60;94.90;;;10.36;62.03;99103.88;4948022;28;115495;-84
2022/11/30 10:13:58;;;;;;;29.00;13.57;;;9.80;94.90;;;10.33;61.62;99098.97;4940686;28;113699;-84
2022/11/30 10:16:59;;;;;;;23.57;13.00;;;9.80;94.80;;;10.28;61.56;99094.34;4950270;28;123517;-82
2022/11/30 10:19:39;;;;;;;26.53;13.63;;;9.70;94.80;;;10.31;61.33;99098.44;4964685;28;122573;-85
2022/11/30 10:22:17;;;;;;;23.73;11.87;;;9.80;94.90;;;10.33;61.74;99093.44;4953521;28;113887;-85
2022/11/30 10:25:43;;;;;;;18.97;10.40;;;11.30;95.10;;;10.37;61.85;99098.06;4963484;28;113485;-85
2022/11/30 10:28:52;;;;;;;23.17;12.60;;;9.90;94.90;;;10.41;61.71;99097.44;4968148;28;123992;-85
2022/11/30 10:31:36;;;;;;;22.70;12.80;;;9.90;94.90;;;10.41;61.82;99101.03;4952120;28;122002;-84
2022/11/30 10:34:22;;;;;;;23.30;12.33;;;9.90;94.90;;;10.45;61.55;99104.00;4959906;28;112115;-82
2022/11/30 10:37:11;;;;;;;26.03;12.27;;;9.90;94.90;;;10.47;61.62;99099.81;4955571;28;113380;-85
2022/11/30 10:40:02;;;;;;;24.10;12.50;;;10.00;94.50;;;10.52;61.61;99096.94;4956557;28;122271;-85